Time;durP1;ratioP1;P1;durP2;ratioP2;P2;SDS_P1;SDS_P2;PMS_P1;PMS_P2;Temp;Humidity;BMP_temperature;BMP_pressure;BME280_temperature;BME280_humidity;BME280_pressure;Samples;Min_cycle;Max_cycle;Signal;HPM_P1;HPM_P2
2022/11/30 00:01:20;;;;;;;0.00;0.00;;;;;;;6.01;100.00;98955.41;4941861;28;20234;-54
2022/11/30 00:03:47;;;;;;;0.00;0.00;;;;;;;5.97;100.00;98954.78;4961130;28;20229;-54
2022/11/30 00:06:21;;;;;;;0.00;0.00;;;;;;;5.89;100.00;98954.53;4977171;28;20236;-55
2022/11/30 00:08:48;;;;;;;0.00;0.00;;;;;;;5.83;100.00;98952.38;4960008;28;20287;-55
2022/11/30 00:11:20;;;;;;;0.00;0.00;;;;;;;5.80;100.00;98950.84;4961698;28;20229;-54
2022/11/30 00:13:47;;;;;;;0.00;0.00;;;;;;;5.69;100.00;98949.03;4959822;28;20237;-56
2022/11/30 00:16:14;;;;;;;0.00;0.00;;;;;;;5.67;100.00;98942.31;4962160;28;20276;-57
2022/11/30 00:18:40;;;;;;;0.00;0.00;;;;;;;5.64;100.00;98945.94;4953488;28;20245;-56
2022/11/30 00:21:10;;;;;;;0.00;0.00;;;;;;;5.57;100.00;98942.16;4953759;28;20238;-56
2022/11/30 00:23:40;;;;;;;0.00;0.00;;;;;;;5.55;100.00;98936.25;4959628;28;20280;-56
2022/11/30 00:26:11;;;;;;;0.00;0.00;;;;;;;5.51;100.00;98940.84;4962755;28;20241;-55
2022/11/30 00:28:40;;;;;;;0.00;0.00;;;;;;;5.54;100.00;98942.38;4959701;28;20305;-55
2022/11/30 00:31:12;;;;;;;0.00;0.00;;;;;;;5.50;100.00;98946.13;4962672;28;20238;-56
2022/11/30 00:33:40;;;;;;;0.00;0.00;;;;;;;5.45;100.00;98943.88;4959471;28;20230;-56
2022/11/30 00:36:11;;;;;;;0.00;0.00;;;;;;;5.46;100.00;98948.13;4962029;28;20257;-56
2022/11/30 00:38:38;;;;;;;0.00;0.00;;;;;;;5.47;100.00;98942.00;4958964;28;20244;-57
2022/11/30 00:41:04;;;;;;;0.00;0.00;;;;;;;5.44;100.00;98939.63;4961159;28;20279;-56
2022/11/30 00:43:31;;;;;;;0.00;0.00;;;;;;;5.43;100.00;98935.38;4949876;28;20242;-56
2022/11/30 00:45:59;;;;;;;0.00;0.00;;;;;;;5.42;100.00;98950.09;4962123;28;20312;-57
2022/11/30 00:48:26;;;;;;;0.00;0.00;;;;;;;5.42;100.00;98942.31;4959262;28;20229;-56
2022/11/30 00:50:53;;;;;;;0.00;0.00;;;;;;;5.40;100.00;98949.38;4961787;28;21228;-56
2022/11/30 00:53:22;;;;;;;0.07;0.07;;;;;;;5.35;100.00;98950.63;4958899;28;20276;-55
2022/11/30 00:55:49;;;;;;;0.00;0.00;;;;;;;5.37;100.00;98959.13;4962058;28;20241;-56
2022/11/30 00:58:16;;;;;;;0.00;0.00;;;;;;;5.31;100.00;98953.44;4964445;28;20283;-56
2022/11/30 01:00:42;;;;;;;0.00;0.00;;;;;;;5.31;100.00;98965.53;4964359;28;20238;-55
2022/11/30 01:03:11;;;;;;;0.00;0.00;;;;;;;5.28;100.00;98971.78;4967277;28;20246;-53
2022/11/30 01:05:38;;;;;;;0.00;0.00;;;;;;;5.27;100.00;98967.53;4964343;28;20248;-54
2022/11/30 01:08:07;;;;;;;0.00;0.00;;;;;;;5.29;100.00;98968.25;4966285;28;20292;-56
2022/11/30 01:10:33;;;;;;;0.00;0.00;;;;;;;5.30;100.00;98969.91;4962717;28;20234;-54
2022/11/30 01:13:00;;;;;;;0.00;0.00;;;;;;;5.31;100.00;98966.38;4965517;28;20242;-54
2022/11/30 01:15:27;;;;;;;0.00;0.00;;;;;;;5.31;100.00;98978.50;4964334;28;20241;-56
2022/11/30 01:17:53;;;;;;;0.00;0.00;;;;;;;5.30;100.00;98979.47;4974453;28;20225;-55
2022/11/30 01:20:22;;;;;;;0.00;0.00;;;;;;;5.29;100.00;98973.44;4963475;28;20246;-56
2022/11/30 01:22:48;;;;;;;0.03;0.03;;;;;;;5.28;100.00;98974.38;4966174;28;20245;-56
2022/11/30 01:25:15;;;;;;;0.07;0.07;;;;;;;5.26;100.00;98978.84;4966334;28;20232;-57
2022/11/30 01:27:42;;;;;;;0.00;0.00;;;;;;;5.31;100.00;98973.31;4964048;28;20237;-55
2022/11/30 01:30:09;;;;;;;0.00;0.00;;;;;;;5.31;100.00;98978.50;4966618;28;20574;-55
2022/11/30 01:32:37;;;;;;;0.00;0.00;;;;;;;5.35;100.00;98977.34;4962503;28;20249;-56
2022/11/30 01:35:04;;;;;;;0.00;0.00;;;;;;;5.38;100.00;98971.94;4965823;28;20490;-57
2022/11/30 01:37:32;;;;;;;0.00;0.00;;;;;;;5.39;100.00;98973.59;4963731;28;20233;-55
2022/11/30 01:39:59;;;;;;;0.10;0.10;;;;;;;5.39;100.00;98973.59;4964816;28;20281;-57
2022/11/30 01:42:25;;;;;;;0.00;0.00;;;;;;;5.41;100.00;98976.09;4963746;28;20226;-57
2022/11/30 01:44:55;;;;;;;0.00;0.00;;;;;;;5.43;100.00;98979.41;4966167;28;20627;-57
2022/11/30 01:47:30;;;;;;;0.00;0.00;;;;;;;5.43;100.00;98984.59;4963812;28;20221;-56
2022/11/30 01:50:02;;;;;;;0.00;0.00;;;;;;;5.45;100.00;98980.94;4966174;28;20772;-57
2022/11/30 01:52:35;;;;;;;0.00;0.00;;;;;;;5.45;100.00;98982.72;4963055;28;20217;-58
2022/11/30 01:55:11;;;;;;;0.00;0.00;;;;;;;5.43;100.00;98985.38;4965875;28;20726;-58
2022/11/30 01:57:42;;;;;;;0.00;0.00;;;;;;;5.47;100.00;98980.84;4964141;28;20241;-58
2022/11/30 02:00:12;;;;;;;0.00;0.00;;;;;;;5.46;100.00;98982.59;4966221;28;20237;-58
2022/11/30 02:02:47;;;;;;;0.00;0.00;;;;;;;5.42;100.00;98988.91;4963649;28;20252;-57
2022/11/30 02:05:15;;;;;;;0.00;0.00;;;;;;;5.45;100.00;98986.09;4966586;28;20568;-55
2022/11/30 02:07:43;;;;;;;0.00;0.00;;;;;;;5.41;100.00;98987.25;4963018;28;20296;-57
2022/11/30 02:10:14;;;;;;;0.00;0.00;;;;;;;5.41;100.00;98984.66;4966276;28;20473;-57
2022/11/30 02:12:52;;;;;;;0.00;0.00;;;;;;;5.41;100.00;98987.25;4963977;28;20248;-57
2022/11/30 02:15:24;;;;;;;0.00;0.00;;;;;;;5.38;100.00;98991.84;4964412;28;20229;-56
2022/11/30 02:17:56;;;;;;;0.03;0.03;;;;;;;5.40;100.00;98980.44;4965034;28;20775;-57
2022/11/30 02:20:46;;;;;;;0.00;0.00;;;;;;;5.43;100.00;98982.00;4963237;28;20626;-56
2022/11/30 02:23:55;;;;;;;0.00;0.00;;;;;;;5.44;100.00;98986.22;4966062;28;20784;-56
2022/11/30 02:27:03;;;;;;;0.00;0.00;;;;;;;5.50;100.00;98990.97;4961238;28;20276;-56
2022/11/30 02:29:34;;;;;;;0.10;0.10;;;;;;;5.54;100.00;98986.38;4955757;28;20225;-56
2022/11/30 02:32:06;;;;;;;0.00;0.00;;;;;;;5.56;100.00;98985.38;4960272;28;20230;-56
2022/11/30 02:34:36;;;;;;;0.00;0.00;;;;;;;5.59;100.00;98982.56;4943446;28;20711;-55
2022/11/30 02:37:05;;;;;;;0.00;0.00;;;;;;;5.56;100.00;98987.94;4946965;28;20231;-56
2022/11/30 02:39:32;;;;;;;0.00;0.00;;;;;;;5.57;100.00;98975.81;4945944;28;20259;-57
2022/11/30 02:41:58;;;;;;;0.00;0.00;;;;;;;5.59;100.00;98981.72;4964221;28;20229;-56
2022/11/30 02:44:26;;;;;;;0.00;0.00;;;;;;;5.61;100.00;98987.59;4962878;28;20237;-56
2022/11/30 02:47:15;;;;;;;0.00;0.00;;;;;;;5.62;100.00;98984.09;4965592;28;20233;-55
2022/11/30 02:49:49;;;;;;;0.00;0.00;;;;;;;5.64;100.00;98984.78;4963121;28;20235;-56
2022/11/30 02:52:19;;;;;;;0.00;0.00;;;;;;;5.66;100.00;98982.13;4965815;28;20249;-56
2022/11/30 02:54:46;;;;;;;0.00;0.00;;;;;;;5.67;100.00;98999.31;4962985;28;20230;-56
2022/11/30 02:57:12;;;;;;;0.00;0.00;;;;;;;5.65;100.00;98990.81;4965976;28;20225;-56
2022/11/30 02:59:39;;;;;;;0.00;0.00;;;;;;;5.66;100.00;98987.28;4961595;28;20241;-57
2022/11/30 03:02:06;;;;;;;0.00;0.00;;;;;;;5.69;100.00;98982.72;4966105;28;20237;-55
2022/11/30 03:04:34;;;;;;;0.00;0.00;;;;;;;5.69;100.00;98985.28;4963026;28;20235;-55
2022/11/30 03:07:00;;;;;;;0.00;0.00;;;;;;;5.67;100.00;98982.00;4965417;28;20275;-57
2022/11/30 03:09:27;;;;;;;0.00;0.00;;;;;;;5.61;100.00;98985.84;4963200;28;20227;-55
2022/11/30 03:11:53;;;;;;;0.00;0.00;;;;;;;5.61;100.00;98991.03;4966043;28;20772;-56
2022/11/30 03:14:20;;;;;;;0.10;0.10;;;;;;;5.59;100.00;98987.72;4960692;28;20233;-56
2022/11/30 03:16:47;;;;;;;0.00;0.00;;;;;;;5.57;100.00;98979.25;4965448;28;20296;-55
2022/11/30 03:19:15;;;;;;;0.00;0.00;;;;;;;5.58;100.00;98983.50;4965166;28;20230;-56
2022/11/30 03:21:43;;;;;;;0.00;0.00;;;;;;;5.58;100.00;98982.66;4962411;28;20824;-56
2022/11/30 03:24:09;;;;;;;0.00;0.00;;;;;;;5.58;100.00;98987.81;4965498;28;20734;-56
2022/11/30 03:26:36;;;;;;;0.10;0.10;;;;;;;5.56;100.00;98980.19;4963002;28;20229;-56
2022/11/30 03:29:03;;;;;;;0.00;0.00;;;;;;;5.51;100.00;98981.44;4965887;28;20241;-56
2022/11/30 03:31:31;;;;;;;0.00;0.00;;;;;;;5.49;100.00;98978.13;4961722;28;20760;-55
2022/11/30 03:33:57;;;;;;;0.00;0.00;;;;;;;5.46;100.00;98974.81;4967064;28;20237;-57
2022/11/30 03:36:24;;;;;;;0.00;0.00;;;;;;;5.47;100.00;98983.44;4966491;28;20229;-56
2022/11/30 03:38:53;;;;;;;0.10;0.10;;;;;;;5.41;100.00;98981.28;4969349;28;20245;-57
2022/11/30 03:41:20;;;;;;;0.00;0.00;;;;;;;5.36;100.00;98985.94;4966540;28;20260;-56
2022/11/30 03:43:47;;;;;;;0.00;0.00;;;;;;;5.32;100.00;98981.00;4967661;28;20245;-56
2022/11/30 03:46:16;;;;;;;0.07;0.07;;;;;;;5.31;100.00;98987.09;4969472;28;20633;-56
2022/11/30 03:48:44;;;;;;;0.03;0.03;;;;;;;5.29;100.00;98993.34;4966785;28;20233;-57
2022/11/30 03:51:12;;;;;;;0.00;0.00;;;;;;;5.24;100.00;98988.47;4968440;28;20267;-56
2022/11/30 03:53:39;;;;;;;0.00;0.00;;;;;;;5.25;100.00;98984.13;4958329;28;20703;-57
2022/11/30 03:56:09;;;;;;;0.03;0.03;;;;;;;5.28;100.00;98991.69;4968980;28;20292;-56
2022/11/30 03:58:36;;;;;;;0.00;0.00;;;;;;;5.27;100.00;98983.06;4966145;28;20705;-56
2022/11/30 04:01:05;;;;;;;0.00;0.00;;;;;;;5.27;100.00;98990.03;4969003;28;20245;-55
2022/11/30 04:03:33;;;;;;;0.10;0.10;;;;;;;5.28;100.00;98981.31;4965896;28;20233;-56
2022/11/30 04:06:02;;;;;;;0.00;0.00;;;;;;;5.27;100.00;98995.19;4968723;28;20284;-56
2022/11/30 04:08:30;;;;;;;0.10;0.10;;;;;;;5.23;100.00;98991.97;4964835;28;20222;-56
2022/11/30 04:10:58;;;;;;;0.00;0.00;;;;;;;5.25;100.00;98992.69;4968174;28;20292;-55
2022/11/30 04:13:30;;;;;;;0.00;0.00;;;;;;;5.24;100.00;98998.00;4964291;28;20297;-56
2022/11/30 04:15:57;;;;;;;0.10;0.10;;;;;;;5.24;100.00;99000.59;4966933;28;20288;-56
2022/11/30 04:18:25;;;;;;;0.00;0.00;;;;;;;5.24;100.00;98998.00;4965785;28;20532;-57
2022/11/30 04:20:53;;;;;;;0.00;0.00;;;;;;;5.22;100.00;99000.69;4968349;28;20234;-57
2022/11/30 04:23:20;;;;;;;0.10;0.10;;;;;;;5.26;100.00;98998.72;4965806;28;20284;-57
2022/11/30 04:25:47;;;;;;;0.03;0.03;;;;;;;5.28;100.00;98991.69;4968124;28;20230;-57
2022/11/30 04:28:15;;;;;;;0.10;0.10;;;;;;;5.31;100.00;98992.28;4968138;28;20280;-56
2022/11/30 04:30:44;;;;;;;0.00;0.00;;;;;;;5.37;100.00;98992.78;5171343;23;20201;-55
2022/11/30 04:33:12;;;;;;;0.00;0.00;;;;;;;5.32;100.00;98993.94;5012021;23;20366;-63
2022/11/30 04:35:40;;;;;;;0.10;0.10;;;;;;;5.38;100.00;98989.25;4964759;28;20272;-62
2022/11/30 04:38:06;;;;;;;0.10;0.10;;;;;;;5.36;100.00;98989.34;4968083;28;20284;-63
2022/11/30 04:40:33;;;;;;;0.00;0.00;;;;;;;5.39;100.00;98985.72;4965731;28;20225;-62
2022/11/30 04:42:59;;;;;;;0.00;0.00;;;;;;;5.39;100.00;98986.53;4970550;28;20240;-62
2022/11/30 04:45:26;;;;;;;0.00;0.00;;;;;;;5.41;100.00;98994.22;4962911;28;20266;-63
2022/11/30 04:47:54;;;;;;;0.10;0.10;;;;;;;5.42;100.00;98993.28;4961452;28;20241;-63
2022/11/30 04:50:24;;;;;;;0.00;0.00;;;;;;;5.45;100.00;98995.66;4966051;28;20241;-63
2022/11/30 04:52:50;;;;;;;0.00;0.00;;;;;;;5.46;100.00;98987.75;4967369;28;20316;-63
2022/11/30 04:55:18;;;;;;;0.00;0.00;;;;;;;5.49;100.00;98993.66;4967564;28;20225;-63
2022/11/30 04:57:45;;;;;;;0.07;0.07;;;;;;;5.51;100.00;98995.22;4957856;28;20242;-63
2022/11/30 05:00:12;;;;;;;0.00;0.00;;;;;;;5.49;100.00;98994.50;4959589;28;20234;-63
2022/11/30 05:02:39;;;;;;;0.07;0.07;;;;;;;5.50;100.00;98997.91;4945608;28;20297;-63
2022/11/30 05:05:08;;;;;;;0.00;0.00;;;;;;;5.49;100.00;98993.66;4962372;28;20285;-63
2022/11/30 05:07:34;;;;;;;0.00;0.00;;;;;;;5.51;100.00;98995.22;4946439;28;20226;-63
2022/11/30 05:10:04;;;;;;;0.00;0.00;;;;;;;5.49;100.00;98997.09;4975590;28;20257;-63
2022/11/30 05:12:31;;;;;;;0.00;0.00;;;;;;;5.47;100.00;98994.59;4957238;28;20230;-63
2022/11/30 05:14:58;;;;;;;0.00;0.00;;;;;;;5.46;100.00;98998.13;4967284;28;20253;-63
2022/11/30 05:17:24;;;;;;;0.00;0.00;;;;;;;5.49;100.00;99004.84;4964762;28;20226;-63
2022/11/30 05:19:51;;;;;;;0.00;0.00;;;;;;;5.51;100.00;99004.72;4967462;28;20221;-63
2022/11/30 05:22:19;;;;;;;0.00;0.00;;;;;;;5.50;100.00;98997.91;4966871;28;20222;-63
2022/11/30 05:24:45;;;;;;;0.00;0.00;;;;;;;5.52;100.00;99001.22;4964231;28;20241;-63
2022/11/30 05:27:13;;;;;;;0.00;0.00;;;;;;;5.50;100.00;99003.91;4967571;28;20271;-63
2022/11/30 05:29:43;;;;;;;0.00;0.00;;;;;;;5.52;100.00;99009.81;4964497;28;20721;-63
2022/11/30 05:32:10;;;;;;;0.00;0.00;;;;;;;5.54;100.00;99004.50;4966815;28;20242;-63
2022/11/30 05:34:36;;;;;;;0.00;0.00;;;;;;;5.56;100.00;99011.25;4964368;28;20237;-63
2022/11/30 05:37:03;;;;;;;0.00;0.00;;;;;;;5.59;100.00;99010.19;4966616;28;20276;-63
2022/11/30 05:39:31;;;;;;;0.00;0.00;;;;;;;5.64;100.00;99008.09;4964550;28;20218;-63
2022/11/30 05:41:57;;;;;;;0.00;0.00;;;;;;;5.60;100.00;99010.09;4967190;28;20229;-63
2022/11/30 05:44:24;;;;;;;0.00;0.00;;;;;;;5.62;100.00;99007.38;4963935;28;20230;-63
2022/11/30 05:46:50;;;;;;;0.00;0.00;;;;;;;5.65;100.00;99003.78;4966241;28;20233;-63
2022/11/30 05:49:17;;;;;;;0.00;0.00;;;;;;;5.66;100.00;99013.19;4966291;28;20868;-63
2022/11/30 05:51:43;;;;;;;0.10;0.10;;;;;;;5.65;100.00;99012.34;4964013;28;20284;-64
2022/11/30 05:54:10;;;;;;;0.00;0.00;;;;;;;5.67;100.00;99015.66;4966744;28;20273;-63
2022/11/30 05:56:38;;;;;;;0.00;0.00;;;;;;;5.69;100.00;99016.38;4965851;28;20232;-63
2022/11/30 05:59:04;;;;;;;0.00;0.00;;;;;;;5.69;100.00;99016.38;4964467;28;20715;-63
2022/11/30 06:01:31;;;;;;;0.00;0.00;;;;;;;5.69;100.00;99021.56;4963187;28;20225;-63
2022/11/30 06:03:57;;;;;;;0.03;0.03;;;;;;;5.70;100.00;99012.84;4966016;28;20230;-63
2022/11/30 06:06:24;;;;;;;0.00;0.00;;;;;;;5.74;100.00;99021.25;4962617;28;20217;-64
2022/11/30 06:08:51;;;;;;;0.10;0.10;;;;;;;5.72;100.00;99013.56;4965821;28;20579;-63
2022/11/30 06:11:17;;;;;;;0.00;0.00;;;;;;;5.75;100.00;99007.34;4965256;28;20230;-63
2022/11/30 06:13:45;;;;;;;0.00;0.00;;;;;;;5.75;100.00;99010.75;4963482;28;20230;-63
2022/11/30 06:16:12;;;;;;;0.00;0.00;;;;;;;5.77;100.00;99013.25;4955565;28;20233;-64
2022/11/30 06:18:38;;;;;;;0.00;0.00;;;;;;;5.77;100.00;99005.47;4962661;28;20296;-65
2022/11/30 06:21:07;;;;;;;0.00;0.00;;;;;;;5.79;100.00;99008.78;4965985;28;20753;-64
2022/11/30 06:23:34;;;;;;;0.00;0.00;;;;;;;5.81;100.00;99014.69;4962363;28;20233;-63
2022/11/30 06:26:04;;;;;;;0.00;0.00;;;;;;;5.84;100.00;99005.84;4965656;28;20241;-63
2022/11/30 06:28:31;;;;;;;0.00;0.00;;;;;;;5.82;100.00;99005.97;4963521;28;20221;-63
2022/11/30 06:31:00;;;;;;;0.03;0.03;;;;;;;5.85;100.00;99007.50;4965214;28;20260;-64
2022/11/30 06:33:26;;;;;;;0.00;0.00;;;;;;;5.83;100.00;99005.00;4976565;28;20555;-63
2022/11/30 06:35:53;;;;;;;0.00;0.00;;;;;;;5.86;100.00;99009.16;4965594;28;20240;-65
2022/11/30 06:38:20;;;;;;;0.00;0.00;;;;;;;5.85;100.00;99008.31;4964247;28;20233;-63
2022/11/30 06:40:47;;;;;;;0.00;0.00;;;;;;;5.89;100.00;99006.34;4965573;28;20237;-63
2022/11/30 06:43:15;;;;;;;0.00;0.00;;;;;;;5.86;100.00;99009.16;4966084;28;20232;-63
2022/11/30 06:45:43;;;;;;;0.10;0.10;;;;;;;5.88;100.00;99013.28;4952199;28;20270;-63
2022/11/30 06:48:11;;;;;;;0.00;0.00;;;;;;;5.91;100.00;99009.66;4965254;28;20248;-63
2022/11/30 06:50:38;;;;;;;0.10;0.10;;;;;;;5.91;100.00;99020.81;4963211;28;20215;-63
2022/11/30 06:53:04;;;;;;;0.00;0.00;;;;;;;5.93;100.00;99015.56;4965962;28;20232;-64
2022/11/30 06:55:34;;;;;;;0.00;0.00;;;;;;;5.93;100.00;99012.13;4963420;28;20233;-64
2022/11/30 06:58:08;;;;;;;0.00;0.00;;;;;;;5.93;100.00;99012.97;4968381;28;20629;-64
2022/11/30 07:00:35;;;;;;;0.00;0.00;;;;;;;5.95;100.00;99018.84;4951762;28;20218;-62
2022/11/30 07:03:01;;;;;;;0.00;0.00;;;;;;;5.95;100.00;99024.03;4958386;28;20229;-62
2022/11/30 07:05:32;;;;;;;0.00;0.00;;;;;;;5.96;100.00;99022.25;4954854;28;20329;-62
2022/11/30 07:07:59;;;;;;;0.10;0.10;;;;;;;5.97;100.00;99016.97;4957999;28;20245;-62
2022/11/30 07:10:28;;;;;;;0.00;0.00;;;;;;;5.94;100.00;99018.94;4967040;28;20233;-62
2022/11/30 07:12:57;;;;;;;0.00;0.00;;;;;;;5.94;100.00;99019.78;4969140;28;20244;-62
2022/11/30 07:15:23;;;;;;;0.00;0.00;;;;;;;5.98;100.00;99022.97;4966302;28;20594;-62
2022/11/30 07:17:50;;;;;;;0.00;0.00;;;;;;;5.95;100.00;99024.03;4969837;28;20622;-62
2022/11/30 07:20:16;;;;;;;0.10;0.10;;;;;;;5.99;100.00;99017.69;4969510;28;20233;-62
2022/11/30 07:22:44;;;;;;;0.00;0.00;;;;;;;6.07;100.00;99024.94;4966087;28;20425;-62
2022/11/30 07:27:55;;;;;;;0.00;0.00;;;;;;;6.03;100.00;99029.53;4966604;28;20237;-62
2022/11/30 07:30:22;;;;;;;0.00;0.00;;;;;;;6.11;100.00;99022.97;4966843;28;20245;-62
2022/11/30 07:32:48;;;;;;;0.00;0.00;;;;;;;6.05;100.00;99019.88;4969339;28;20229;-62
2022/11/30 07:35:15;;;;;;;0.00;0.00;;;;;;;6.08;100.00;99028.38;4969075;28;20229;-62
2022/11/30 07:37:41;;;;;;;0.00;0.00;;;;;;;6.17;100.00;99027.69;4963378;28;20244;-62
2022/11/30 07:40:10;;;;;;;0.07;0.07;;;;;;;6.12;100.00;99032.38;4964645;28;20258;-62
2022/11/30 07:42:37;;;;;;;0.00;0.00;;;;;;;6.11;100.00;99031.53;4964185;28;20225;-63
2022/11/30 07:45:07;;;;;;;0.00;0.00;;;;;;;6.12;100.00;99034.97;4953843;28;20226;-63
2022/11/30 07:47:33;;;;;;;0.10;0.10;;;;;;;6.14;100.00;99030.50;4948243;28;20229;-63
2022/11/30 07:50:00;;;;;;;0.00;0.00;;;;;;;6.15;100.00;99032.97;4969312;28;20599;-63
2022/11/30 07:52:26;;;;;;;0.00;0.00;;;;;;;6.18;100.00;99040.53;4965445;28;20217;-63
2022/11/30 07:54:53;;;;;;;0.00;0.00;;;;;;;6.22;100.00;99037.72;4952848;28;20568;-63
2022/11/30 07:57:23;;;;;;;0.00;0.00;;;;;;;6.20;100.00;99041.25;4957562;28;20226;-63
2022/11/30 07:59:50;;;;;;;0.00;0.00;;;;;;;6.28;100.00;99038.09;4961554;28;20251;-63
2022/11/30 08:02:17;;;;;;;0.00;0.00;;;;;;;6.22;100.00;99037.72;4968910;28;20234;-63
2022/11/30 08:04:43;;;;;;;0.00;0.00;;;;;;;6.27;100.00;99033.00;4965841;28;20226;-63
2022/11/30 08:07:10;;;;;;;0.00;0.00;;;;;;;6.31;100.00;99037.88;4968754;28;20230;-63
2022/11/30 08:09:36;;;;;;;0.00;0.00;;;;;;;6.24;100.00;99044.44;4965800;28;20236;-63
2022/11/30 08:12:03;;;;;;;0.00;0.00;;;;;;;6.37;100.00;99046.94;4968240;28;20745;-63
2022/11/30 08:14:32;;;;;;;0.00;0.00;;;;;;;6.45;100.00;99043.78;4965873;28;20301;-63
2022/11/30 08:16:59;;;;;;;0.00;0.00;;;;;;;6.45;100.00;99047.22;4968420;28;20242;-62
2022/11/30 08:19:25;;;;;;;0.00;0.00;;;;;;;6.54;100.00;99039.69;4963941;28;20225;-62
2022/11/30 08:21:52;;;;;;;0.00;0.00;;;;;;;6.54;100.00;99047.47;4964578;28;20258;-62
2022/11/30 08:24:19;;;;;;;0.00;0.00;;;;;;;6.62;100.00;99039.94;4947207;28;20238;-62
2022/11/30 08:26:45;;;;;;;0.00;0.00;;;;;;;6.60;100.00;99037.44;4968289;28;20225;-62
2022/11/30 08:29:12;;;;;;;0.00;0.00;;;;;;;6.65;100.00;99044.91;4968556;28;20237;-62
2022/11/30 08:31:40;;;;;;;0.00;0.00;;;;;;;6.61;100.00;99044.28;4963310;28;21221;-63
2022/11/30 08:34:09;;;;;;;0.00;0.00;;;;;;;6.68;100.00;99049.03;4962626;28;20218;-63
2022/11/30 08:36:39;;;;;;;0.00;0.00;;;;;;;6.62;100.00;99051.13;4965113;28;20228;-63
2022/11/30 08:39:08;;;;;;;0.00;0.00;;;;;;;6.56;100.00;99043.81;4966985;28;20811;-63
2022/11/30 08:41:35;;;;;;;0.00;0.00;;;;;;;6.61;100.00;99046.88;4965564;28;20229;-63
2022/11/30 08:44:02;;;;;;;0.00;0.00;;;;;;;6.69;100.00;99046.31;4967730;28;20325;-63
2022/11/30 08:46:28;;;;;;;0.10;0.10;;;;;;;6.75;100.00;99051.06;4965632;28;20232;-63
2022/11/30 08:48:57;;;;;;;0.10;0.10;;;;;;;6.78;100.00;99053.41;4968507;28;20373;-62
2022/11/30 08:51:23;;;;;;;0.00;0.00;;;;;;;6.78;100.00;99062.94;4980010;28;20226;-62
2022/11/30 08:53:50;;;;;;;0.00;0.00;;;;;;;6.83;100.00;99055.66;4967812;28;20241;-62
2022/11/30 08:56:19;;;;;;;0.00;0.00;;;;;;;6.87;100.00;99064.03;4968282;28;20229;-62
2022/11/30 08:58:49;;;;;;;0.00;0.00;;;;;;;6.90;100.00;99064.63;4965245;28;20237;-62
2022/11/30 09:01:18;;;;;;;0.00;0.00;;;;;;;6.94;100.00;99066.03;4960272;28;20225;-62
2022/11/30 09:03:46;;;;;;;0.00;0.00;;;;;;;6.96;100.00;99065.91;4964932;28;20284;-62
2022/11/30 09:06:16;;;;;;;0.00;0.00;;;;;;;6.76;100.00;99060.50;4967787;28;20292;-62
2022/11/30 09:08:46;;;;;;;0.07;0.07;;;;;;;6.68;100.00;99060.25;4965088;28;20233;-62
2022/11/30 09:11:15;;;;;;;0.03;0.03;;;;;;;6.73;100.00;99060.72;4967273;28;20217;-62
2022/11/30 09:13:43;;;;;;;0.00;0.00;;;;;;;6.86;100.00;99068.41;4956717;28;20238;-62
2022/11/30 09:16:11;;;;;;;0.10;0.10;;;;;;;6.72;100.00;99068.59;4967059;28;20218;-62
2022/11/30 09:18:38;;;;;;;0.10;0.10;;;;;;;6.63;100.00;99070.94;4964856;28;20234;-62
2022/11/30 09:21:08;;;;;;;0.10;0.10;;;;;;;6.67;100.00;99074.16;4967438;28;20598;-61
2022/11/30 09:23:37;;;;;;;0.00;0.00;;;;;;;6.83;100.00;99083.38;4963756;28;20222;-61
2022/11/30 09:26:06;;;;;;;0.00;0.00;;;;;;;6.70;100.00;99078.25;4966425;28;20233;-62
2022/11/30 09:28:33;;;;;;;0.00;0.00;;;;;;;6.77;100.00;99080.31;4964545;28;20226;-63
2022/11/30 09:31:01;;;;;;;0.00;0.00;;;;;;;6.66;100.00;99075.09;4966504;28;20832;-62
2022/11/30 09:33:29;;;;;;;0.00;0.00;;;;;;;6.80;100.00;99084.41;4953052;28;20705;-63
2022/11/30 09:35:56;;;;;;;0.00;0.00;;;;;;;7.05;100.00;99083.38;4966841;28;20229;-63
2022/11/30 09:38:23;;;;;;;0.00;0.00;;;;;;;7.06;100.00;99086.81;4963752;28;20308;-63
2022/11/30 09:40:54;;;;;;;0.00;0.00;;;;;;;7.07;100.00;99081.50;4962801;28;20247;-64
2022/11/30 09:43:32;;;;;;;0.00;0.00;;;;;;;7.01;100.00;99089.75;4961383;28;20228;-62
2022/11/30 09:46:03;;;;;;;0.00;0.00;;;;;;;7.09;100.00;99086.59;4960266;28;20988;-62
2022/11/30 09:48:51;;;;;;;0.10;0.10;;;;;;;7.07;100.00;99078.09;4951289;28;20230;-62
2022/11/30 09:51:20;;;;;;;0.00;0.00;;;;;;;7.01;100.00;99079.38;4962861;28;20716;-63
2022/11/30 09:53:51;;;;;;;0.00;0.00;;;;;;;7.04;100.00;99086.91;4952276;28;20238;-63
2022/11/30 09:56:25;;;;;;;0.10;0.10;;;;;;;7.09;100.00;99084.00;4954589;28;20313;-63
2022/11/30 09:58:59;;;;;;;0.00;0.00;;;;;;;7.00;100.00;99076.91;4950463;28;20268;-63
2022/11/30 10:01:25;;;;;;;0.00;0.00;;;;;;;6.98;100.00;99079.59;4960262;28;20366;-63
2022/11/30 10:03:52;;;;;;;0.00;0.00;;;;;;;7.06;100.00;99085.03;4966666;28;20226;-63
2022/11/30 10:06:26;;;;;;;0.00;0.00;;;;;;;7.01;100.00;99083.75;4966067;28;20693;-63
2022/11/30 10:09:09;;;;;;;0.10;0.10;;;;;;;6.90;100.00;99082.78;4952516;28;20230;-63
2022/11/30 10:11:45;;;;;;;0.00;0.00;;;;;;;7.05;100.00;99087.75;4963759;28;20713;-63
2022/11/30 10:14:32;;;;;;;0.00;0.00;;;;;;;6.99;100.00;99083.84;4954599;28;20221;-62
2022/11/30 10:17:09;;;;;;;0.10;0.10;;;;;;;6.96;100.00;99075.47;4963088;28;20237;-62
2022/11/30 10:19:55;;;;;;;0.10;0.10;;;;;;;7.06;100.00;99073.84;4961549;28;20590;-62
2022/11/30 10:22:30;;;;;;;0.00;0.00;;;;;;;6.97;100.00;99070.16;4960076;28;20257;-62
2022/11/30 10:25:07;;;;;;;0.00;0.00;;;;;;;7.22;100.00;99070.88;4961575;28;20733;-64
2022/11/30 10:27:47;;;;;;;0.00;0.00;;;;;;;7.34;100.00;99072.53;4961445;28;20710;-63
2022/11/30 10:30:21;;;;;;;0.00;0.00;;;;;;;7.51;100.00;99067.81;4966661;28;20233;-63
2022/11/30 10:32:52;;;;;;;0.00;0.00;;;;;;;7.70;100.00;99069.78;4963814;28;20233;-63
2022/11/30 10:35:27;;;;;;;0.00;0.00;;;;;;;7.74;100.00;99073.78;4965900;28;20336;-63
2022/11/30 10:37:56;;;;;;;0.00;0.00;;;;;;;7.79;100.00;99076.03;4963236;28;20233;-63
2022/11/30 10:40:34;;;;;;;0.00;0.00;;;;;;;7.85;100.00;99074.69;4963663;28;20227;-63
2022/11/30 10:43:15;;;;;;;0.00;0.00;;;;;;;7.59;100.00;99067.19;4965751;28;20706;-63
2022/11/30 10:45:46;;;;;;;0.00;0.00;;;;;;;7.56;100.00;99072.63;4963384;28;20325;-63
2022/11/30 10:48:17;;;;;;;0.00;0.00;;;;;;;7.57;100.00;99067.31;4966027;28;20233;-63
2022/11/30 10:50:47;;;;;;;0.00;0.00;;;;;;;7.61;100.00;99063.53;4963319;28;20226;-63
2022/11/30 10:53:14;;;;;;;0.00;0.00;;;;;;;7.64;100.00;99057.25;4958824;28;20230;-63
2022/11/30 10:55:44;;;;;;;0.00;0.00;;;;;;;7.66;100.00;99060.56;4954581;28;20233;-63
2022/11/30 10:58:19;;;;;;;0.00;0.00;;;;;;;7.62;100.00;99061.75;4965063;28;20233;-63
2022/11/30 11:00:53;;;;;;;0.00;0.00;;;;;;;7.52;100.00;99059.88;4963486;28;20229;-63
2022/11/30 11:03:24;;;;;;;0.00;0.00;;;;;;;7.66;100.00;99055.38;4962987;28;20233;-63
2022/11/30 11:06:05;;;;;;;0.00;0.00;;;;;;;7.90;100.00;99047.41;4964579;28;20324;-63
2022/11/30 11:08:32;;;;;;;0.00;0.00;;;;;;;7.96;100.00;99051.28;4961110;28;20225;-63
2022/11/30 11:10:59;;;;;;;0.00;0.00;;;;;;;8.16;100.00;99054.84;4965091;28;20229;-63
2022/11/30 11:13:38;;;;;;;0.00;0.00;;;;;;;8.13;100.00;99050.75;4961349;28;20244;-63
2022/11/30 11:16:06;;;;;;;0.00;0.00;;;;;;;8.11;100.00;99038.78;4965428;28;20318;-63
2022/11/30 11:18:33;;;;;;;0.00;0.00;;;;;;;7.80;100.00;99049.91;4945886;28;20238;-63
2022/11/30 11:21:03;;;;;;;0.00;0.00;;;;;;;7.86;100.00;99048.59;4960320;28;20237;-63
2022/11/30 11:23:33;;;;;;;0.00;0.00;;;;;;;7.63;100.00;99037.41;4953872;28;20560;-63
2022/11/30 11:26:00;;;;;;;0.00;0.00;;;;;;;7.77;100.00;99046.72;4954673;28;20229;-62
2022/11/30 11:28:27;;;;;;;0.00;0.00;;;;;;;7.66;100.00;99045.81;4953150;28;20229;-62
2022/11/30 11:30:57;;;;;;;0.00;0.00;;;;;;;7.59;100.00;99049.00;4965459;28;20602;-62
2022/11/30 11:33:25;;;;;;;0.00;0.00;;;;;;;7.56;100.00;99038.84;4954526;28;20225;-62
2022/11/30 11:35:53;;;;;;;0.00;0.00;;;;;;;7.78;100.00;99048.38;4965399;28;20288;-63
2022/11/30 11:38:22;;;;;;;0.00;0.00;;;;;;;7.95;100.00;99045.22;4955124;28;20227;-63
2022/11/30 11:40:59;;;;;;;0.00;0.00;;;;;;;7.88;100.00;99043.25;4964611;28;20237;-63
2022/11/30 11:43:28;;;;;;;0.00;0.00;;;;;;;7.89;100.00;99047.50;4953856;28;20218;-63
2022/11/30 11:46:00;;;;;;;0.00;0.00;;;;;;;8.12;100.00;99051.69;4958643;28;20229;-63